sensor_id;sensor_type;location;lat;lon;timestamp;P1;durP1;ratioP1;P2;durP2;ratioP2
6378;SDS011;3222;48.858;10.128;2022-07-29T00:01:48;3.43;;;2.83;;
6378;SDS011;3222;48.858;10.128;2022-07-29T00:04:14;5.67;;;2.90;;
6378;SDS011;3222;48.858;10.128;2022-07-29T00:06:40;4.03;;;3.07;;
6378;SDS011;3222;48.858;10.128;2022-07-29T00:09:05;3.60;;;2.83;;
6378;SDS011;3222;48.858;10.128;2022-07-29T00:11:31;3.17;;;2.83;;
6378;SDS011;3222;48.858;10.128;2022-07-29T00:13:57;3.10;;;2.63;;
6378;SDS011;3222;48.858;10.128;2022-07-29T00:16:23;3.23;;;2.83;;
6378;SDS011;3222;48.858;10.128;2022-07-29T00:18:49;2.87;;;2.40;;
6378;SDS011;3222;48.858;10.128;2022-07-29T00:21:14;2.40;;;2.20;;
6378;SDS011;3222;48.858;10.128;2022-07-29T00:23:40;3.93;;;2.40;;
6378;SDS011;3222;48.858;10.128;2022-07-29T00:26:06;2.73;;;2.60;;
6378;SDS011;3222;48.858;10.128;2022-07-29T00:28:32;2.60;;;2.40;;
6378;SDS011;3222;48.858;10.128;2022-07-29T00:30:57;4.20;;;2.53;;
6378;SDS011;3222;48.858;10.128;2022-07-29T00:33:23;2.20;;;2.10;;
6378;SDS011;3222;48.858;10.128;2022-07-29T00:35:49;2.40;;;2.20;;
6378;SDS011;3222;48.858;10.128;2022-07-29T00:38:15;2.60;;;2.40;;
6378;SDS011;3222;48.858;10.128;2022-07-29T00:40:43;2.07;;;1.97;;
6378;SDS011;3222;48.858;10.128;2022-07-29T00:43:10;3.80;;;2.13;;
6378;SDS011;3222;48.858;10.128;2022-07-29T00:45:37;2.60;;;2.37;;
6378;SDS011;3222;48.858;10.128;2022-07-29T00:48:03;2.63;;;2.30;;
6378;SDS011;3222;48.858;10.128;2022-07-29T00:50:30;2.30;;;2.10;;
6378;SDS011;3222;48.858;10.128;2022-07-29T00:52:57;2.20;;;2.00;;
6378;SDS011;3222;48.858;10.128;2022-07-29T00:55:23;2.00;;;1.90;;
6378;SDS011;3222;48.858;10.128;2022-07-29T00:57:49;3.23;;;2.20;;
6378;SDS011;3222;48.858;10.128;2022-07-29T01:00:16;2.17;;;2.00;;
6378;SDS011;3222;48.858;10.128;2022-07-29T01:02:45;2.23;;;2.03;;
6378;SDS011;3222;48.858;10.128;2022-07-29T01:05:15;2.10;;;1.90;;
6378;SDS011;3222;48.858;10.128;2022-07-29T01:07:43;2.10;;;1.83;;
6378;SDS011;3222;48.858;10.128;2022-07-29T01:10:09;2.03;;;1.93;;
6378;SDS011;3222;48.858;10.128;2022-07-29T01:12:38;2.40;;;1.80;;
6378;SDS011;3222;48.858;10.128;2022-07-29T01:15:06;1.90;;;1.80;;
6378;SDS011;3222;48.858;10.128;2022-07-29T01:17:46;2.10;;;1.90;;
6378;SDS011;3222;48.858;10.128;2022-07-29T01:25:54;1.67;;;1.57;;
6378;SDS011;3222;48.858;10.128;2022-07-29T01:31:12;3.60;;;2.05;;
6378;SDS011;3222;48.858;10.128;2022-07-29T01:33:41;1.63;;;1.50;;
6378;SDS011;3222;48.858;10.128;2022-07-29T01:36:22;1.50;;;1.40;;
6378;SDS011;3222;48.858;10.128;2022-07-29T01:38:59;2.03;;;1.57;;
6378;SDS011;3222;48.858;10.128;2022-07-29T01:41:38;1.60;;;1.50;;
6378;SDS011;3222;48.858;10.128;2022-07-29T01:44:13;2.33;;;1.93;;
6378;SDS011;3222;48.858;10.128;2022-07-29T01:46:44;1.60;;;1.50;;
6378;SDS011;3222;48.858;10.128;2022-07-29T01:49:16;1.73;;;1.63;;
6378;SDS011;3222;48.858;10.128;2022-07-29T01:51:47;1.58;;;1.48;;
6378;SDS011;3222;48.858;10.128;2022-07-29T01:54:21;1.77;;;1.67;;
6378;SDS011;3222;48.858;10.128;2022-07-29T01:56:55;1.63;;;1.53;;
6378;SDS011;3222;48.858;10.128;2022-07-29T01:59:23;1.80;;;1.70;;
6378;SDS011;3222;48.858;10.128;2022-07-29T02:01:50;1.87;;;1.77;;
6378;SDS011;3222;48.858;10.128;2022-07-29T02:04:19;2.15;;;1.90;;
6378;SDS011;3222;48.858;10.128;2022-07-29T02:06:46;1.67;;;1.57;;
6378;SDS011;3222;48.858;10.128;2022-07-29T02:09:14;1.90;;;1.80;;
6378;SDS011;3222;48.858;10.128;2022-07-29T02:11:44;1.55;;;1.45;;
6378;SDS011;3222;48.858;10.128;2022-07-29T02:14:15;2.00;;;1.90;;
6378;SDS011;3222;48.858;10.128;2022-07-29T02:16:43;2.13;;;1.60;;
6378;SDS011;3222;48.858;10.128;2022-07-29T02:19:12;1.80;;;1.70;;
6378;SDS011;3222;48.858;10.128;2022-07-29T02:21:39;1.58;;;1.50;;
6378;SDS011;3222;48.858;10.128;2022-07-29T02:24:05;2.00;;;1.90;;
6378;SDS011;3222;48.858;10.128;2022-07-29T02:26:33;1.83;;;1.73;;
6378;SDS011;3222;48.858;10.128;2022-07-29T02:28:59;2.50;;;1.70;;
6378;SDS011;3222;48.858;10.128;2022-07-29T02:31:28;1.80;;;1.70;;
6378;SDS011;3222;48.858;10.128;2022-07-29T02:33:57;1.60;;;1.50;;
6378;SDS011;3222;48.858;10.128;2022-07-29T02:36:25;1.60;;;1.50;;
6378;SDS011;3222;48.858;10.128;2022-07-29T02:38:53;1.90;;;1.80;;
6378;SDS011;3222;48.858;10.128;2022-07-29T02:41:45;1.85;;;1.75;;
6378;SDS011;3222;48.858;10.128;2022-07-29T02:44:10;3.60;;;1.80;;
6378;SDS011;3222;48.858;10.128;2022-07-29T02:46:41;2.10;;;1.90;;
6378;SDS011;3222;48.858;10.128;2022-07-29T02:51:51;4.13;;;1.60;;
6378;SDS011;3222;48.858;10.128;2022-07-29T02:54:29;2.50;;;1.60;;
6378;SDS011;3222;48.858;10.128;2022-07-29T02:57:03;1.60;;;1.50;;
6378;SDS011;3222;48.858;10.128;2022-07-29T02:59:36;2.40;;;1.70;;
6378;SDS011;3222;48.858;10.128;2022-07-29T03:02:02;1.67;;;1.60;;
6378;SDS011;3222;48.858;10.128;2022-07-29T03:04:32;1.80;;;1.70;;
6378;SDS011;3222;48.858;10.128;2022-07-29T03:06:59;1.90;;;1.80;;
6378;SDS011;3222;48.858;10.128;2022-07-29T03:09:26;1.87;;;1.77;;
6378;SDS011;3222;48.858;10.128;2022-07-29T03:11:53;1.70;;;1.60;;
6378;SDS011;3222;48.858;10.128;2022-07-29T03:14:20;2.22;;;1.85;;
6378;SDS011;3222;48.858;10.128;2022-07-29T03:16:48;1.60;;;1.50;;
6378;SDS011;3222;48.858;10.128;2022-07-29T03:19:14;1.70;;;1.60;;
6378;SDS011;3222;48.858;10.128;2022-07-29T03:21:41;1.83;;;1.50;;
6378;SDS011;3222;48.858;10.128;2022-07-29T03:24:06;1.73;;;1.63;;
6378;SDS011;3222;48.858;10.128;2022-07-29T03:26:32;1.70;;;1.60;;
6378;SDS011;3222;48.858;10.128;2022-07-29T03:28:58;1.70;;;1.60;;
6378;SDS011;3222;48.858;10.128;2022-07-29T03:31:24;1.60;;;1.50;;
6378;SDS011;3222;48.858;10.128;2022-07-29T03:33:50;1.70;;;1.60;;
6378;SDS011;3222;48.858;10.128;2022-07-29T03:36:16;1.70;;;1.60;;
6378;SDS011;3222;48.858;10.128;2022-07-29T03:38:42;1.80;;;1.70;;
6378;SDS011;3222;48.858;10.128;2022-07-29T03:41:09;3.27;;;1.70;;
6378;SDS011;3222;48.858;10.128;2022-07-29T03:43:37;1.87;;;1.77;;
6378;SDS011;3222;48.858;10.128;2022-07-29T03:46:06;2.95;;;1.80;;
6378;SDS011;3222;48.858;10.128;2022-07-29T03:48:34;1.70;;;1.60;;
6378;SDS011;3222;48.858;10.128;2022-07-29T03:51:04;1.63;;;1.50;;
6378;SDS011;3222;48.858;10.128;2022-07-29T03:53:31;2.35;;;1.92;;
6378;SDS011;3222;48.858;10.128;2022-07-29T03:55:58;2.10;;;1.90;;
6378;SDS011;3222;48.858;10.128;2022-07-29T03:58:27;2.15;;;1.65;;
6378;SDS011;3222;48.858;10.128;2022-07-29T04:00:53;2.03;;;1.70;;
6378;SDS011;3222;48.858;10.128;2022-07-29T04:03:20;1.70;;;1.60;;
6378;SDS011;3222;48.858;10.128;2022-07-29T04:06:00;2.00;;;1.63;;
6378;SDS011;3222;48.858;10.128;2022-07-29T04:08:28;2.87;;;1.90;;
6378;SDS011;3222;48.858;10.128;2022-07-29T04:10:53;1.60;;;1.50;;
6378;SDS011;3222;48.858;10.128;2022-07-29T04:13:20;1.70;;;1.60;;
6378;SDS011;3222;48.858;10.128;2022-07-29T04:15:45;1.77;;;1.67;;
6378;SDS011;3222;48.858;10.128;2022-07-29T04:18:11;1.87;;;1.50;;
6378;SDS011;3222;48.858;10.128;2022-07-29T04:20:37;2.20;;;1.73;;
6378;SDS011;3222;48.858;10.128;2022-07-29T04:23:02;1.70;;;1.60;;
6378;SDS011;3222;48.858;10.128;2022-07-29T04:25:28;1.60;;;1.50;;
6378;SDS011;3222;48.858;10.128;2022-07-29T04:27:53;1.60;;;1.50;;
6378;SDS011;3222;48.858;10.128;2022-07-29T04:30:25;2.20;;;1.70;;
6378;SDS011;3222;48.858;10.128;2022-07-29T04:32:51;1.60;;;1.50;;
6378;SDS011;3222;48.858;10.128;2022-07-29T04:35:17;1.67;;;1.57;;
6378;SDS011;3222;48.858;10.128;2022-07-29T04:37:43;1.50;;;1.40;;
6378;SDS011;3222;48.858;10.128;2022-07-29T04:40:09;1.60;;;1.50;;
6378;SDS011;3222;48.858;10.128;2022-07-29T04:42:35;1.60;;;1.43;;
6378;SDS011;3222;48.858;10.128;2022-07-29T04:45:01;1.70;;;1.60;;
6378;SDS011;3222;48.858;10.128;2022-07-29T04:47:26;1.40;;;1.30;;
6378;SDS011;3222;48.858;10.128;2022-07-29T04:49:52;1.50;;;1.40;;
6378;SDS011;3222;48.858;10.128;2022-07-29T04:52:18;1.47;;;1.37;;
6378;SDS011;3222;48.858;10.128;2022-07-29T04:54:43;1.60;;;1.50;;
6378;SDS011;3222;48.858;10.128;2022-07-29T04:57:09;1.43;;;1.33;;
6378;SDS011;3222;48.858;10.128;2022-07-29T04:59:34;1.63;;;1.53;;
6378;SDS011;3222;48.858;10.128;2022-07-29T05:02:00;1.73;;;1.63;;
6378;SDS011;3222;48.858;10.128;2022-07-29T05:04:26;1.60;;;1.50;;
6378;SDS011;3222;48.858;10.128;2022-07-29T05:06:51;1.60;;;1.50;;
6378;SDS011;3222;48.858;10.128;2022-07-29T05:09:17;1.60;;;1.50;;
6378;SDS011;3222;48.858;10.128;2022-07-29T05:11:43;2.40;;;1.50;;
6378;SDS011;3222;48.858;10.128;2022-07-29T05:14:08;2.30;;;1.60;;
6378;SDS011;3222;48.858;10.128;2022-07-29T05:16:34;1.47;;;1.30;;
6378;SDS011;3222;48.858;10.128;2022-07-29T05:19:00;1.60;;;1.50;;
6378;SDS011;3222;48.858;10.128;2022-07-29T05:21:25;1.57;;;1.53;;
6378;SDS011;3222;48.858;10.128;2022-07-29T05:23:51;1.90;;;1.70;;
6378;SDS011;3222;48.858;10.128;2022-07-29T05:26:18;1.80;;;1.70;;
6378;SDS011;3222;48.858;10.128;2022-07-29T05:28:43;1.43;;;1.33;;
6378;SDS011;3222;48.858;10.128;2022-07-29T05:31:09;2.60;;;1.20;;
6378;SDS011;3222;48.858;10.128;2022-07-29T05:33:35;1.60;;;1.40;;
6378;SDS011;3222;48.858;10.128;2022-07-29T05:36:00;1.50;;;1.40;;
6378;SDS011;3222;48.858;10.128;2022-07-29T05:38:26;1.63;;;1.53;;
6378;SDS011;3222;48.858;10.128;2022-07-29T05:40:52;1.83;;;1.50;;
6378;SDS011;3222;48.858;10.128;2022-07-29T05:43:17;2.00;;;1.90;;
6378;SDS011;3222;48.858;10.128;2022-07-29T05:45:43;2.57;;;1.60;;
6378;SDS011;3222;48.858;10.128;2022-07-29T05:48:08;1.70;;;1.60;;
6378;SDS011;3222;48.858;10.128;2022-07-29T05:50:34;1.93;;;1.83;;
6378;SDS011;3222;48.858;10.128;2022-07-29T05:53:00;2.00;;;1.90;;
6378;SDS011;3222;48.858;10.128;2022-07-29T05:55:25;1.77;;;1.67;;
6378;SDS011;3222;48.858;10.128;2022-07-29T05:57:51;2.40;;;2.20;;
6378;SDS011;3222;48.858;10.128;2022-07-29T06:00:17;3.20;;;1.70;;
6378;SDS011;3222;48.858;10.128;2022-07-29T06:02:43;4.00;;;2.10;;
6378;SDS011;3222;48.858;10.128;2022-07-29T06:05:09;2.50;;;2.30;;
6378;SDS011;3222;48.858;10.128;2022-07-29T06:07:34;4.17;;;2.30;;
6378;SDS011;3222;48.858;10.128;2022-07-29T06:10:00;2.47;;;2.10;;
6378;SDS011;3222;48.858;10.128;2022-07-29T06:12:26;2.73;;;2.00;;
6378;SDS011;3222;48.858;10.128;2022-07-29T06:14:51;2.20;;;2.00;;
6378;SDS011;3222;48.858;10.128;2022-07-29T06:17:17;3.23;;;2.77;;
6378;SDS011;3222;48.858;10.128;2022-07-29T06:19:43;3.37;;;2.37;;
6378;SDS011;3222;48.858;10.128;2022-07-29T06:22:08;3.60;;;2.60;;
6378;SDS011;3222;48.858;10.128;2022-07-29T06:24:35;2.47;;;2.30;;
6378;SDS011;3222;48.858;10.128;2022-07-29T06:27:02;2.57;;;2.37;;
6378;SDS011;3222;48.858;10.128;2022-07-29T06:29:28;4.57;;;2.07;;
6378;SDS011;3222;48.858;10.128;2022-07-29T06:31:53;3.30;;;2.50;;
6378;SDS011;3222;48.858;10.128;2022-07-29T06:34:19;3.83;;;2.40;;
6378;SDS011;3222;48.858;10.128;2022-07-29T06:36:45;5.17;;;2.20;;
6378;SDS011;3222;48.858;10.128;2022-07-29T06:39:11;2.70;;;2.40;;
6378;SDS011;3222;48.858;10.128;2022-07-29T06:41:36;3.30;;;3.00;;
6378;SDS011;3222;48.858;10.128;2022-07-29T06:44:08;2.60;;;2.40;;
6378;SDS011;3222;48.858;10.128;2022-07-29T06:46:34;5.57;;;2.50;;
6378;SDS011;3222;48.858;10.128;2022-07-29T06:48:59;4.03;;;2.90;;
6378;SDS011;3222;48.858;10.128;2022-07-29T06:51:26;2.60;;;2.40;;
6378;SDS011;3222;48.858;10.128;2022-07-29T06:53:52;3.47;;;2.87;;
6378;SDS011;3222;48.858;10.128;2022-07-29T06:56:18;3.00;;;2.80;;
6378;SDS011;3222;48.858;10.128;2022-07-29T06:58:44;2.93;;;2.63;;
6378;SDS011;3222;48.858;10.128;2022-07-29T07:01:09;3.00;;;2.63;;
6378;SDS011;3222;48.858;10.128;2022-07-29T07:03:35;4.37;;;2.40;;
6378;SDS011;3222;48.858;10.128;2022-07-29T07:06:00;3.40;;;2.40;;
6378;SDS011;3222;48.858;10.128;2022-07-29T07:08:26;4.43;;;2.63;;
6378;SDS011;3222;48.858;10.128;2022-07-29T07:10:52;3.43;;;2.40;;
6378;SDS011;3222;48.858;10.128;2022-07-29T07:13:18;3.80;;;2.80;;
6378;SDS011;3222;48.858;10.128;2022-07-29T07:15:44;2.77;;;2.57;;
6378;SDS011;3222;48.858;10.128;2022-07-29T07:18:12;4.50;;;2.80;;
6378;SDS011;3222;48.858;10.128;2022-07-29T07:20:39;2.73;;;2.50;;
6378;SDS011;3222;48.858;10.128;2022-07-29T07:23:05;4.60;;;3.00;;
6378;SDS011;3222;48.858;10.128;2022-07-29T07:25:31;3.17;;;2.97;;
6378;SDS011;3222;48.858;10.128;2022-07-29T07:27:57;3.57;;;3.00;;
6378;SDS011;3222;48.858;10.128;2022-07-29T07:30:22;3.37;;;2.90;;
6378;SDS011;3222;48.858;10.128;2022-07-29T07:32:48;3.00;;;2.80;;
6378;SDS011;3222;48.858;10.128;2022-07-29T07:35:14;2.40;;;2.20;;
6378;SDS011;3222;48.858;10.128;2022-07-29T07:37:40;2.90;;;2.70;;
6378;SDS011;3222;48.858;10.128;2022-07-29T07:40:06;2.70;;;2.50;;
6378;SDS011;3222;48.858;10.128;2022-07-29T07:42:33;2.50;;;2.40;;
6378;SDS011;3222;48.858;10.128;2022-07-29T07:44:59;2.70;;;2.50;;
6378;SDS011;3222;48.858;10.128;2022-07-29T07:47:25;2.40;;;2.20;;
6378;SDS011;3222;48.858;10.128;2022-07-29T07:49:51;2.50;;;2.30;;
6378;SDS011;3222;48.858;10.128;2022-07-29T07:52:18;2.70;;;2.50;;
6378;SDS011;3222;48.858;10.128;2022-07-29T07:54:45;2.67;;;2.50;;
6378;SDS011;3222;48.858;10.128;2022-07-29T07:57:12;2.80;;;2.40;;
6378;SDS011;3222;48.858;10.128;2022-07-29T07:59:38;4.37;;;2.30;;
6378;SDS011;3222;48.858;10.128;2022-07-29T08:02:04;3.07;;;2.77;;
6378;SDS011;3222;48.858;10.128;2022-07-29T08:04:30;2.87;;;2.53;;
6378;SDS011;3222;48.858;10.128;2022-07-29T08:06:57;3.80;;;2.60;;
6378;SDS011;3222;48.858;10.128;2022-07-29T08:09:23;2.72;;;2.10;;
6378;SDS011;3222;48.858;10.128;2022-07-29T08:11:50;3.63;;;2.57;;
6378;SDS011;3222;48.858;10.128;2022-07-29T08:14:16;2.53;;;2.17;;
6378;SDS011;3222;48.858;10.128;2022-07-29T08:16:42;3.13;;;2.30;;
6378;SDS011;3222;48.858;10.128;2022-07-29T08:19:08;3.10;;;2.55;;
6378;SDS011;3222;48.858;10.128;2022-07-29T08:21:34;2.97;;;2.73;;
6378;SDS011;3222;48.858;10.128;2022-07-29T08:23:59;2.90;;;2.70;;
6378;SDS011;3222;48.858;10.128;2022-07-29T08:26:44;3.60;;;3.30;;
6378;SDS011;3222;48.858;10.128;2022-07-29T08:29:10;3.07;;;2.87;;
6378;SDS011;3222;48.858;10.128;2022-07-29T08:31:37;2.65;;;2.30;;
6378;SDS011;3222;48.858;10.128;2022-07-29T08:34:03;2.53;;;2.33;;
6378;SDS011;3222;48.858;10.128;2022-07-29T08:36:29;2.67;;;2.38;;
6378;SDS011;3222;48.858;10.128;2022-07-29T08:38:56;3.03;;;2.30;;
6378;SDS011;3222;48.858;10.128;2022-07-29T08:41:22;2.50;;;2.30;;
6378;SDS011;3222;48.858;10.128;2022-07-29T08:43:49;5.00;;;2.45;;
6378;SDS011;3222;48.858;10.128;2022-07-29T08:46:16;2.53;;;2.33;;
6378;SDS011;3222;48.858;10.128;2022-07-29T08:48:42;2.45;;;2.30;;
6378;SDS011;3222;48.858;10.128;2022-07-29T08:51:07;2.50;;;2.30;;
6378;SDS011;3222;48.858;10.128;2022-07-29T08:53:37;2.10;;;1.90;;
6378;SDS011;3222;48.858;10.128;2022-07-29T08:56:06;3.22;;;2.40;;
6378;SDS011;3222;48.858;10.128;2022-07-29T08:58:33;2.47;;;2.30;;
6378;SDS011;3222;48.858;10.128;2022-07-29T09:00:59;2.75;;;2.17;;
6378;SDS011;3222;48.858;10.128;2022-07-29T09:03:29;4.43;;;2.30;;
6378;SDS011;3222;48.858;10.128;2022-07-29T09:05:57;3.25;;;2.40;;
6378;SDS011;3222;48.858;10.128;2022-07-29T09:08:24;2.80;;;2.60;;
6378;SDS011;3222;48.858;10.128;2022-07-29T09:10:50;2.80;;;2.60;;
6378;SDS011;3222;48.858;10.128;2022-07-29T09:13:16;2.75;;;2.55;;
6378;SDS011;3222;48.858;10.128;2022-07-29T09:15:43;3.72;;;2.40;;
6378;SDS011;3222;48.858;10.128;2022-07-29T09:18:09;3.50;;;2.70;;
6378;SDS011;3222;48.858;10.128;2022-07-29T09:20:35;2.80;;;2.33;;
6378;SDS011;3222;48.858;10.128;2022-07-29T09:23:19;2.83;;;2.20;;
6378;SDS011;3222;48.858;10.128;2022-07-29T09:25:45;2.42;;;2.22;;
6378;SDS011;3222;48.858;10.128;2022-07-29T09:28:15;2.50;;;2.25;;
6378;SDS011;3222;48.858;10.128;2022-07-29T09:30:49;2.88;;;2.20;;
6378;SDS011;3222;48.858;10.128;2022-07-29T09:33:17;2.72;;;2.10;;
6378;SDS011;3222;48.858;10.128;2022-07-29T09:35:43;2.95;;;2.50;;
6378;SDS011;3222;48.858;10.128;2022-07-29T09:38:12;2.42;;;2.22;;
6378;SDS011;3222;48.858;10.128;2022-07-29T09:40:38;2.50;;;2.30;;
6378;SDS011;3222;48.858;10.128;2022-07-29T09:43:11;2.53;;;2.33;;
6378;SDS011;3222;48.858;10.128;2022-07-29T09:45:37;4.05;;;2.47;;
6378;SDS011;3222;48.858;10.128;2022-07-29T09:48:13;3.67;;;2.58;;
6378;SDS011;3222;48.858;10.128;2022-07-29T09:50:42;3.63;;;2.67;;
6378;SDS011;3222;48.858;10.128;2022-07-29T09:53:09;2.53;;;2.33;;
6378;SDS011;3222;48.858;10.128;2022-07-29T09:56:09;2.83;;;2.58;;
6378;SDS011;3222;48.858;10.128;2022-07-29T09:58:31;3.00;;;2.50;;
6378;SDS011;3222;48.858;10.128;2022-07-29T10:01:00;3.80;;;2.40;;
6378;SDS011;3222;48.858;10.128;2022-07-29T10:03:26;2.85;;;2.65;;
6378;SDS011;3222;48.858;10.128;2022-07-29T10:06:05;2.60;;;2.50;;
6378;SDS011;3222;48.858;10.128;2022-07-29T10:08:31;3.08;;;2.53;;
6378;SDS011;3222;48.858;10.128;2022-07-29T10:11:16;3.25;;;2.50;;
6378;SDS011;3222;48.858;10.128;2022-07-29T10:13:43;3.72;;;2.78;;
6378;SDS011;3222;48.858;10.128;2022-07-29T10:16:10;3.38;;;2.72;;
6378;SDS011;3222;48.858;10.128;2022-07-29T10:18:39;2.83;;;2.63;;
6378;SDS011;3222;48.858;10.128;2022-07-29T10:21:06;6.72;;;3.35;;
6378;SDS011;3222;48.858;10.128;2022-07-29T10:23:32;3.17;;;2.67;;
6378;SDS011;3222;48.858;10.128;2022-07-29T10:26:00;2.95;;;2.63;;
6378;SDS011;3222;48.858;10.128;2022-07-29T10:28:26;4.25;;;2.65;;
6378;SDS011;3222;48.858;10.128;2022-07-29T10:30:52;2.70;;;2.50;;
6378;SDS011;3222;48.858;10.128;2022-07-29T10:33:42;3.35;;;2.72;;
6378;SDS011;3222;48.858;10.128;2022-07-29T10:42:29;4.47;;;3.15;;
6378;SDS011;3222;48.858;10.128;2022-07-29T10:44:49;2.83;;;2.63;;
6378;SDS011;3222;48.858;10.128;2022-07-29T10:47:22;2.90;;;2.65;;
6378;SDS011;3222;48.858;10.128;2022-07-29T10:50:00;5.68;;;2.78;;
6378;SDS011;3222;48.858;10.128;2022-07-29T10:55:56;3.20;;;2.90;;
6378;SDS011;3222;48.858;10.128;2022-07-29T10:58:14;3.15;;;2.80;;
6378;SDS011;3222;48.858;10.128;2022-07-29T11:00:47;3.30;;;3.00;;
6378;SDS011;3222;48.858;10.128;2022-07-29T11:04:02;3.00;;;2.75;;
6378;SDS011;3222;48.858;10.128;2022-07-29T11:06:05;2.70;;;2.50;;
6378;SDS011;3222;48.858;10.128;2022-07-29T11:08:31;2.45;;;2.25;;
6378;SDS011;3222;48.858;10.128;2022-07-29T11:13:45;2.40;;;2.28;;
6378;SDS011;3222;48.858;10.128;2022-07-29T11:16:12;3.55;;;2.47;;
6378;SDS011;3222;48.858;10.128;2022-07-29T11:21:43;2.40;;;2.20;;
6378;SDS011;3222;48.858;10.128;2022-07-29T11:24:25;3.83;;;2.30;;
6378;SDS011;3222;48.858;10.128;2022-07-29T11:32:14;2.78;;;2.30;;
6378;SDS011;3222;48.858;10.128;2022-07-29T11:34:42;2.88;;;2.63;;
6378;SDS011;3222;48.858;10.128;2022-07-29T11:45:44;2.60;;;2.40;;
6378;SDS011;3222;48.858;10.128;2022-07-29T11:50:15;3.15;;;2.60;;
6378;SDS011;3222;48.858;10.128;2022-07-29T11:52:55;3.40;;;2.70;;
6378;SDS011;3222;48.858;10.128;2022-07-29T11:55:22;3.13;;;2.53;;
6378;SDS011;3222;48.858;10.128;2022-07-29T11:57:53;3.72;;;2.47;;
6378;SDS011;3222;48.858;10.128;2022-07-29T12:00:21;2.65;;;2.45;;
6378;SDS011;3222;48.858;10.128;2022-07-29T12:02:56;2.92;;;2.70;;
6378;SDS011;3222;48.858;10.128;2022-07-29T12:05:30;2.72;;;2.53;;
6378;SDS011;3222;48.858;10.128;2022-07-29T12:08:10;4.75;;;2.70;;
6378;SDS011;3222;48.858;10.128;2022-07-29T12:10:37;3.40;;;2.53;;
6378;SDS011;3222;48.858;10.128;2022-07-29T12:13:03;4.03;;;2.50;;
6378;SDS011;3222;48.858;10.128;2022-07-29T12:15:29;3.17;;;2.55;;
6378;SDS011;3222;48.858;10.128;2022-07-29T12:17:55;2.75;;;2.45;;
6378;SDS011;3222;48.858;10.128;2022-07-29T12:20:28;5.93;;;2.70;;
6378;SDS011;3222;48.858;10.128;2022-07-29T12:22:55;2.80;;;2.60;;
6378;SDS011;3222;48.858;10.128;2022-07-29T12:25:21;4.18;;;2.60;;
6378;SDS011;3222;48.858;10.128;2022-07-29T12:27:59;4.45;;;2.50;;
6378;SDS011;3222;48.858;10.128;2022-07-29T12:30:42;2.53;;;2.33;;
6378;SDS011;3222;48.858;10.128;2022-07-29T12:33:20;3.17;;;2.13;;
6378;SDS011;3222;48.858;10.128;2022-07-29T12:35:47;3.22;;;2.42;;
6378;SDS011;3222;48.858;10.128;2022-07-29T12:38:18;2.35;;;1.98;;
6378;SDS011;3222;48.858;10.128;2022-07-29T12:40:45;1.77;;;1.67;;
6378;SDS011;3222;48.858;10.128;2022-07-29T12:43:15;3.17;;;1.40;;
6378;SDS011;3222;48.858;10.128;2022-07-29T12:45:43;1.85;;;1.60;;
6378;SDS011;3222;48.858;10.128;2022-07-29T12:48:15;2.42;;;1.67;;
6378;SDS011;3222;48.858;10.128;2022-07-29T12:50:54;1.75;;;1.35;;
6378;SDS011;3222;48.858;10.128;2022-07-29T12:53:22;1.45;;;1.35;;
6378;SDS011;3222;48.858;10.128;2022-07-29T12:55:49;1.35;;;1.30;;
6378;SDS011;3222;48.858;10.128;2022-07-29T13:03:43;2.70;;;1.30;;
6378;SDS011;3222;48.858;10.128;2022-07-29T13:06:29;3.25;;;1.05;;
6378;SDS011;3222;48.858;10.128;2022-07-29T13:11:30;1.38;;;1.27;;
6378;SDS011;3222;48.858;10.128;2022-07-29T13:13:57;1.38;;;1.30;;
6378;SDS011;3222;48.858;10.128;2022-07-29T13:16:23;1.63;;;1.52;;
6378;SDS011;3222;48.858;10.128;2022-07-29T13:18:54;1.38;;;1.30;;
6378;SDS011;3222;48.858;10.128;2022-07-29T13:21:31;1.45;;;1.35;;
6378;SDS011;3222;48.858;10.128;2022-07-29T13:23:57;1.50;;;1.40;;
6378;SDS011;3222;48.858;10.128;2022-07-29T13:26:23;1.85;;;1.73;;
6378;SDS011;3222;48.858;10.128;2022-07-29T13:28:49;1.95;;;1.70;;
6378;SDS011;3222;48.858;10.128;2022-07-29T13:31:14;1.60;;;1.50;;
6378;SDS011;3222;48.858;10.128;2022-07-29T13:33:40;1.65;;;1.55;;
6378;SDS011;3222;48.858;10.128;2022-07-29T13:36:06;1.92;;;1.83;;
6378;SDS011;3222;48.858;10.128;2022-07-29T13:38:32;1.98;;;1.80;;
6378;SDS011;3222;48.858;10.128;2022-07-29T13:40:58;2.15;;;1.90;;
6378;SDS011;3222;48.858;10.128;2022-07-29T13:43:25;2.00;;;1.90;;
6378;SDS011;3222;48.858;10.128;2022-07-29T13:45:51;1.90;;;1.80;;
6378;SDS011;3222;48.858;10.128;2022-07-29T13:48:17;3.67;;;2.03;;
6378;SDS011;3222;48.858;10.128;2022-07-29T13:50:42;1.80;;;1.70;;
6378;SDS011;3222;48.858;10.128;2022-07-29T13:53:09;1.95;;;1.80;;
6378;SDS011;3222;48.858;10.128;2022-07-29T13:55:34;1.88;;;1.77;;
6378;SDS011;3222;48.858;10.128;2022-07-29T13:58:00;2.03;;;1.83;;
6378;SDS011;3222;48.858;10.128;2022-07-29T14:00:26;2.17;;;2.00;;
6378;SDS011;3222;48.858;10.128;2022-07-29T14:02:52;2.30;;;2.10;;
6378;SDS011;3222;48.858;10.128;2022-07-29T14:05:17;2.03;;;1.92;;
6378;SDS011;3222;48.858;10.128;2022-07-29T14:07:43;2.25;;;1.98;;
6378;SDS011;3222;48.858;10.128;2022-07-29T14:10:09;1.90;;;1.80;;
6378;SDS011;3222;48.858;10.128;2022-07-29T14:12:35;2.28;;;2.03;;
6378;SDS011;3222;48.858;10.128;2022-07-29T14:15:01;2.30;;;2.10;;
6378;SDS011;3222;48.858;10.128;2022-07-29T14:17:26;3.20;;;2.13;;
6378;SDS011;3222;48.858;10.128;2022-07-29T14:19:52;2.40;;;2.20;;
6378;SDS011;3222;48.858;10.128;2022-07-29T14:22:18;2.67;;;2.30;;
6378;SDS011;3222;48.858;10.128;2022-07-29T14:24:44;2.53;;;2.08;;
6378;SDS011;3222;48.858;10.128;2022-07-29T14:27:10;2.65;;;2.45;;
6378;SDS011;3222;48.858;10.128;2022-07-29T14:29:36;2.45;;;2.20;;
6378;SDS011;3222;48.858;10.128;2022-07-29T14:32:02;2.38;;;2.20;;
6378;SDS011;3222;48.858;10.128;2022-07-29T14:34:28;2.65;;;2.45;;
6378;SDS011;3222;48.858;10.128;2022-07-29T14:36:54;3.83;;;2.35;;
6378;SDS011;3222;48.858;10.128;2022-07-29T14:39:23;2.88;;;2.67;;
6378;SDS011;3222;48.858;10.128;2022-07-29T14:41:49;2.80;;;2.60;;
6378;SDS011;3222;48.858;10.128;2022-07-29T14:44:16;2.58;;;2.38;;
6378;SDS011;3222;48.858;10.128;2022-07-29T14:46:43;3.25;;;2.53;;
6378;SDS011;3222;48.858;10.128;2022-07-29T14:49:08;6.00;;;3.03;;
6378;SDS011;3222;48.858;10.128;2022-07-29T14:51:34;3.10;;;2.40;;
6378;SDS011;3222;48.858;10.128;2022-07-29T14:54:00;2.70;;;2.50;;
6378;SDS011;3222;48.858;10.128;2022-07-29T14:56:25;3.03;;;2.75;;
6378;SDS011;3222;48.858;10.128;2022-07-29T14:58:52;3.00;;;2.67;;
6378;SDS011;3222;48.858;10.128;2022-07-29T15:01:18;2.72;;;2.50;;
6378;SDS011;3222;48.858;10.128;2022-07-29T15:03:43;2.70;;;2.50;;
6378;SDS011;3222;48.858;10.128;2022-07-29T15:06:09;2.85;;;2.65;;
6378;SDS011;3222;48.858;10.128;2022-07-29T15:08:34;3.67;;;2.70;;
6378;SDS011;3222;48.858;10.128;2022-07-29T15:11:00;3.10;;;2.45;;
6378;SDS011;3222;48.858;10.128;2022-07-29T15:13:26;3.00;;;2.70;;
6378;SDS011;3222;48.858;10.128;2022-07-29T15:15:51;2.70;;;2.50;;
6378;SDS011;3222;48.858;10.128;2022-07-29T15:18:17;3.55;;;2.60;;
6378;SDS011;3222;48.858;10.128;2022-07-29T15:20:43;2.50;;;2.30;;
6378;SDS011;3222;48.858;10.128;2022-07-29T15:23:11;2.90;;;2.50;;
6378;SDS011;3222;48.858;10.128;2022-07-29T15:25:38;2.30;;;2.20;;
6378;SDS011;3222;48.858;10.128;2022-07-29T15:28:04;2.60;;;2.40;;
6378;SDS011;3222;48.858;10.128;2022-07-29T15:30:32;3.03;;;2.60;;
6378;SDS011;3222;48.858;10.128;2022-07-29T15:32:58;2.35;;;2.15;;
6378;SDS011;3222;48.858;10.128;2022-07-29T15:35:25;2.42;;;1.88;;
6378;SDS011;3222;48.858;10.128;2022-07-29T15:37:50;3.42;;;1.90;;
6378;SDS011;3222;48.858;10.128;2022-07-29T15:40:16;1.85;;;1.75;;
6378;SDS011;3222;48.858;10.128;2022-07-29T15:42:41;2.45;;;1.77;;
6378;SDS011;3222;48.858;10.128;2022-07-29T15:45:07;2.28;;;1.73;;
6378;SDS011;3222;48.858;10.128;2022-07-29T15:47:36;3.17;;;1.80;;
6378;SDS011;3222;48.858;10.128;2022-07-29T15:50:02;2.35;;;1.95;;
6378;SDS011;3222;48.858;10.128;2022-07-29T15:52:28;2.10;;;1.90;;
6378;SDS011;3222;48.858;10.128;2022-07-29T15:54:54;2.08;;;1.95;;